sensor_id;sensor_type;location;lat;lon;timestamp;temperature;humidity
56268;DHT22;42175;46.930;9.532;2023-05-23T00:01:42;23.50;51.70
56268;DHT22;42175;46.930;9.532;2023-05-23T00:04:09;23.40;51.60
56268;DHT22;42175;46.930;9.532;2023-05-23T00:06:44;23.40;51.70
56268;DHT22;42175;46.930;9.532;2023-05-23T00:09:15;23.40;51.70
56268;DHT22;42175;46.930;9.532;2023-05-23T00:11:41;23.40;51.70
56268;DHT22;42175;46.930;9.532;2023-05-23T00:14:13;23.40;51.70
56268;DHT22;42175;46.930;9.532;2023-05-23T00:16:44;23.30;51.50
56268;DHT22;42175;46.930;9.532;2023-05-23T00:19:11;23.40;51.60
56268;DHT22;42175;46.930;9.532;2023-05-23T00:21:39;23.40;51.60
56268;DHT22;42175;46.930;9.532;2023-05-23T00:24:06;23.30;51.50
56268;DHT22;42175;46.930;9.532;2023-05-23T00:26:32;23.40;51.60
56268;DHT22;42175;46.930;9.532;2023-05-23T00:28:58;23.30;51.50
56268;DHT22;42175;46.930;9.532;2023-05-23T00:31:24;23.40;51.50
56268;DHT22;42175;46.930;9.532;2023-05-23T00:33:50;23.40;51.50
56268;DHT22;42175;46.930;9.532;2023-05-23T00:36:15;23.40;51.50
56268;DHT22;42175;46.930;9.532;2023-05-23T00:38:42;23.40;51.50
56268;DHT22;42175;46.930;9.532;2023-05-23T00:41:10;23.40;51.40
56268;DHT22;42175;46.930;9.532;2023-05-23T00:43:36;23.40;51.60
56268;DHT22;42175;46.930;9.532;2023-05-23T00:46:02;23.40;51.50
56268;DHT22;42175;46.930;9.532;2023-05-23T00:48:28;23.40;51.60
56268;DHT22;42175;46.930;9.532;2023-05-23T00:50:55;23.30;51.50
56268;DHT22;42175;46.930;9.532;2023-05-23T00:53:21;23.30;51.50
56268;DHT22;42175;46.930;9.532;2023-05-23T00:55:47;23.40;51.60
56268;DHT22;42175;46.930;9.532;2023-05-23T00:58:13;23.40;51.60
56268;DHT22;42175;46.930;9.532;2023-05-23T01:00:41;23.40;51.60
56268;DHT22;42175;46.930;9.532;2023-05-23T01:03:09;23.40;51.50
56268;DHT22;42175;46.930;9.532;2023-05-23T01:05:45;23.50;51.50
56268;DHT22;42175;46.930;9.532;2023-05-23T01:08:11;23.50;51.70
56268;DHT22;42175;46.930;9.532;2023-05-23T01:10:37;23.50;51.50
56268;DHT22;42175;46.930;9.532;2023-05-23T01:13:12;23.50;51.40
56268;DHT22;42175;46.930;9.532;2023-05-23T01:16:06;23.50;51.40
56268;DHT22;42175;46.930;9.532;2023-05-23T01:19:06;23.50;51.30
56268;DHT22;42175;46.930;9.532;2023-05-23T01:21:37;23.50;51.40
56268;DHT22;42175;46.930;9.532;2023-05-23T01:29:36;23.50;51.60
56268;DHT22;42175;46.930;9.532;2023-05-23T01:32:06;23.50;51.70
56268;DHT22;42175;46.930;9.532;2023-05-23T01:34:34;23.50;51.70
56268;DHT22;42175;46.930;9.532;2023-05-23T01:37:01;23.40;51.70
56268;DHT22;42175;46.930;9.532;2023-05-23T01:39:26;23.40;51.70
56268;DHT22;42175;46.930;9.532;2023-05-23T01:41:53;23.40;51.70
56268;DHT22;42175;46.930;9.532;2023-05-23T01:44:19;23.40;51.60
56268;DHT22;42175;46.930;9.532;2023-05-23T01:46:46;23.40;51.60
56268;DHT22;42175;46.930;9.532;2023-05-23T01:49:13;23.40;51.60
56268;DHT22;42175;46.930;9.532;2023-05-23T01:51:40;23.40;51.60
56268;DHT22;42175;46.930;9.532;2023-05-23T01:54:06;23.40;51.10
56268;DHT22;42175;46.930;9.532;2023-05-23T01:56:32;23.40;51.60
56268;DHT22;42175;46.930;9.532;2023-05-23T01:58:58;23.40;51.50
56268;DHT22;42175;46.930;9.532;2023-05-23T02:01:24;23.50;51.50
56268;DHT22;42175;46.930;9.532;2023-05-23T02:03:50;23.50;51.50
56268;DHT22;42175;46.930;9.532;2023-05-23T02:06:16;23.50;51.50
56268;DHT22;42175;46.930;9.532;2023-05-23T02:08:42;23.50;51.50
56268;DHT22;42175;46.930;9.532;2023-05-23T02:11:08;23.50;51.60
56268;DHT22;42175;46.930;9.532;2023-05-23T02:13:35;23.50;51.50
56268;DHT22;42175;46.930;9.532;2023-05-23T02:16:00;23.50;52.20
56268;DHT22;42175;46.930;9.532;2023-05-23T02:18:27;23.50;51.50
56268;DHT22;42175;46.930;9.532;2023-05-23T02:20:54;23.50;51.50
56268;DHT22;42175;46.930;9.532;2023-05-23T02:23:23;23.50;51.40
56268;DHT22;42175;46.930;9.532;2023-05-23T02:25:48;23.50;51.40
56268;DHT22;42175;46.930;9.532;2023-05-23T02:28:14;23.50;51.50
56268;DHT22;42175;46.930;9.532;2023-05-23T02:30:40;23.50;51.50
56268;DHT22;42175;46.930;9.532;2023-05-23T02:33:06;23.50;51.50
56268;DHT22;42175;46.930;9.532;2023-05-23T02:35:32;23.50;51.60
56268;DHT22;42175;46.930;9.532;2023-05-23T02:37:59;23.50;51.60
56268;DHT22;42175;46.930;9.532;2023-05-23T02:40:25;23.50;51.60
56268;DHT22;42175;46.930;9.532;2023-05-23T02:42:51;23.50;51.90
56268;DHT22;42175;46.930;9.532;2023-05-23T02:45:17;23.50;51.70
56268;DHT22;42175;46.930;9.532;2023-05-23T02:47:43;23.50;51.70
56268;DHT22;42175;46.930;9.532;2023-05-23T02:50:09;23.50;51.60
56268;DHT22;42175;46.930;9.532;2023-05-23T02:52:35;23.50;51.60
56268;DHT22;42175;46.930;9.532;2023-05-23T02:55:01;23.50;51.60
56268;DHT22;42175;46.930;9.532;2023-05-23T02:57:26;23.50;51.60
56268;DHT22;42175;46.930;9.532;2023-05-23T02:59:52;23.50;51.60
56268;DHT22;42175;46.930;9.532;2023-05-23T03:02:18;23.50;51.70
56268;DHT22;42175;46.930;9.532;2023-05-23T03:04:43;23.50;51.70
56268;DHT22;42175;46.930;9.532;2023-05-23T03:07:09;23.50;51.70
56268;DHT22;42175;46.930;9.532;2023-05-23T03:09:36;23.50;51.70
56268;DHT22;42175;46.930;9.532;2023-05-23T03:12:02;23.50;51.70
56268;DHT22;42175;46.930;9.532;2023-05-23T03:14:28;23.50;51.70
56268;DHT22;42175;46.930;9.532;2023-05-23T03:16:54;23.50;51.70
56268;DHT22;42175;46.930;9.532;2023-05-23T03:19:20;23.40;51.70
56268;DHT22;42175;46.930;9.532;2023-05-23T03:21:46;23.50;51.90
56268;DHT22;42175;46.930;9.532;2023-05-23T03:24:12;23.50;51.80
56268;DHT22;42175;46.930;9.532;2023-05-23T03:26:37;23.50;51.80
56268;DHT22;42175;46.930;9.532;2023-05-23T03:29:03;23.50;51.80
56268;DHT22;42175;46.930;9.532;2023-05-23T03:31:29;23.50;51.60
56268;DHT22;42175;46.930;9.532;2023-05-23T03:33:55;23.50;51.70
56268;DHT22;42175;46.930;9.532;2023-05-23T03:36:20;23.50;51.70
56268;DHT22;42175;46.930;9.532;2023-05-23T03:38:51;23.40;51.60
56268;DHT22;42175;46.930;9.532;2023-05-23T03:41:17;23.40;51.60
56268;DHT22;42175;46.930;9.532;2023-05-23T03:43:43;23.40;51.50
56268;DHT22;42175;46.930;9.532;2023-05-23T03:46:09;23.50;51.50
56268;DHT22;42175;46.930;9.532;2023-05-23T03:48:35;23.50;51.40
56268;DHT22;42175;46.930;9.532;2023-05-23T03:51:01;23.50;51.50
56268;DHT22;42175;46.930;9.532;2023-05-23T03:53:27;23.50;51.60
56268;DHT22;42175;46.930;9.532;2023-05-23T03:55:52;23.50;52.10
56268;DHT22;42175;46.930;9.532;2023-05-23T03:58:19;23.40;51.50
56268;DHT22;42175;46.930;9.532;2023-05-23T04:00:45;23.50;51.50
56268;DHT22;42175;46.930;9.532;2023-05-23T04:03:11;23.50;51.50
56268;DHT22;42175;46.930;9.532;2023-05-23T04:05:39;23.50;51.50
56268;DHT22;42175;46.930;9.532;2023-05-23T04:08:06;23.50;51.60
56268;DHT22;42175;46.930;9.532;2023-05-23T04:10:32;23.40;51.60
56268;DHT22;42175;46.930;9.532;2023-05-23T04:12:58;23.40;51.50
56268;DHT22;42175;46.930;9.532;2023-05-23T04:15:24;23.50;51.60
56268;DHT22;42175;46.930;9.532;2023-05-23T04:17:50;23.40;51.50
56268;DHT22;42175;46.930;9.532;2023-05-23T04:20:16;23.40;51.40
56268;DHT22;42175;46.930;9.532;2023-05-23T04:22:41;23.40;51.40
56268;DHT22;42175;46.930;9.532;2023-05-23T04:25:07;23.40;51.40
56268;DHT22;42175;46.930;9.532;2023-05-23T04:27:34;23.40;51.30
56268;DHT22;42175;46.930;9.532;2023-05-23T04:30:00;23.40;51.30
56268;DHT22;42175;46.930;9.532;2023-05-23T04:32:26;23.30;51.20
56268;DHT22;42175;46.930;9.532;2023-05-23T04:34:51;23.40;51.20
56268;DHT22;42175;46.930;9.532;2023-05-23T04:37:18;23.40;51.10
56268;DHT22;42175;46.930;9.532;2023-05-23T04:39:47;23.40;51.10
56268;DHT22;42175;46.930;9.532;2023-05-23T04:42:13;23.50;51.20
56268;DHT22;42175;46.930;9.532;2023-05-23T04:44:38;23.50;51.20
56268;DHT22;42175;46.930;9.532;2023-05-23T04:47:04;23.40;51.20
56268;DHT22;42175;46.930;9.532;2023-05-23T04:49:34;23.50;51.20
56268;DHT22;42175;46.930;9.532;2023-05-23T04:52:00;23.50;51.20
56268;DHT22;42175;46.930;9.532;2023-05-23T04:54:26;23.50;51.20
56268;DHT22;42175;46.930;9.532;2023-05-23T04:56:52;23.50;51.20
56268;DHT22;42175;46.930;9.532;2023-05-23T04:59:18;23.50;51.20
56268;DHT22;42175;46.930;9.532;2023-05-23T05:01:44;23.50;51.20
56268;DHT22;42175;46.930;9.532;2023-05-23T05:04:09;23.50;51.20
56268;DHT22;42175;46.930;9.532;2023-05-23T05:06:35;23.50;51.20
56268;DHT22;42175;46.930;9.532;2023-05-23T05:09:01;23.50;51.10
56268;DHT22;42175;46.930;9.532;2023-05-23T05:11:27;23.50;51.00
56268;DHT22;42175;46.930;9.532;2023-05-23T05:13:53;23.50;50.50
56268;DHT22;42175;46.930;9.532;2023-05-23T05:16:18;23.30;50.20
56268;DHT22;42175;46.930;9.532;2023-05-23T05:18:44;23.10;50.70
56268;DHT22;42175;46.930;9.532;2023-05-23T05:21:10;22.80;51.40
56268;DHT22;42175;46.930;9.532;2023-05-23T05:23:35;22.70;51.90
56268;DHT22;42175;46.930;9.532;2023-05-23T05:26:01;22.60;52.00
56268;DHT22;42175;46.930;9.532;2023-05-23T05:28:27;22.60;51.70
56268;DHT22;42175;46.930;9.532;2023-05-23T05:30:53;22.50;51.50
56268;DHT22;42175;46.930;9.532;2023-05-23T05:33:21;22.40;51.60
56268;DHT22;42175;46.930;9.532;2023-05-23T05:35:48;22.30;52.20
56268;DHT22;42175;46.930;9.532;2023-05-23T05:38:16;22.10;54.00
56268;DHT22;42175;46.930;9.532;2023-05-23T05:40:42;22.10;53.20
56268;DHT22;42175;46.930;9.532;2023-05-23T05:43:07;22.10;53.60
56268;DHT22;42175;46.930;9.532;2023-05-23T05:45:35;22.00;53.50
56268;DHT22;42175;46.930;9.532;2023-05-23T05:48:01;22.00;54.10
56268;DHT22;42175;46.930;9.532;2023-05-23T05:50:27;22.10;53.30
56268;DHT22;42175;46.930;9.532;2023-05-23T05:52:52;22.10;53.50
56268;DHT22;42175;46.930;9.532;2023-05-23T05:55:18;22.00;53.20
56268;DHT22;42175;46.930;9.532;2023-05-23T05:57:44;21.90;53.40
56268;DHT22;42175;46.930;9.532;2023-05-23T06:00:12;21.90;53.10
56268;DHT22;42175;46.930;9.532;2023-05-23T06:02:43;21.80;53.50
56268;DHT22;42175;46.930;9.532;2023-05-23T06:05:13;21.70;53.50
56268;DHT22;42175;46.930;9.532;2023-05-23T06:07:41;21.70;53.60
56268;DHT22;42175;46.930;9.532;2023-05-23T06:10:08;21.60;53.60
56268;DHT22;42175;46.930;9.532;2023-05-23T06:12:34;21.70;53.80
56268;DHT22;42175;46.930;9.532;2023-05-23T06:15:00;21.70;53.60
56268;DHT22;42175;46.930;9.532;2023-05-23T06:17:27;21.60;54.30
56268;DHT22;42175;46.930;9.532;2023-05-23T06:19:52;21.70;54.50
56268;DHT22;42175;46.930;9.532;2023-05-23T06:22:18;21.60;54.30
56268;DHT22;42175;46.930;9.532;2023-05-23T06:24:44;21.60;53.90
56268;DHT22;42175;46.930;9.532;2023-05-23T06:27:11;21.60;53.80
56268;DHT22;42175;46.930;9.532;2023-05-23T06:29:37;21.60;53.80
56268;DHT22;42175;46.930;9.532;2023-05-23T06:32:03;21.60;53.90
56268;DHT22;42175;46.930;9.532;2023-05-23T06:34:29;21.60;53.70
56268;DHT22;42175;46.930;9.532;2023-05-23T06:36:55;21.60;53.90
56268;DHT22;42175;46.930;9.532;2023-05-23T06:39:21;21.70;53.80
56268;DHT22;42175;46.930;9.532;2023-05-23T06:41:47;21.80;53.20
56268;DHT22;42175;46.930;9.532;2023-05-23T06:44:13;22.00;52.90
56268;DHT22;42175;46.930;9.532;2023-05-23T06:46:39;22.10;52.60
56268;DHT22;42175;46.930;9.532;2023-05-23T06:49:05;22.20;52.40
56268;DHT22;42175;46.930;9.532;2023-05-23T06:51:30;22.20;52.20
56268;DHT22;42175;46.930;9.532;2023-05-23T06:53:56;22.30;52.10
56268;DHT22;42175;46.930;9.532;2023-05-23T06:56:22;22.30;52.10
56268;DHT22;42175;46.930;9.532;2023-05-23T06:58:48;22.40;52.00
56268;DHT22;42175;46.930;9.532;2023-05-23T07:01:14;22.40;52.00
56268;DHT22;42175;46.930;9.532;2023-05-23T07:03:39;22.40;52.00
56268;DHT22;42175;46.930;9.532;2023-05-23T07:06:07;22.40;52.00
56268;DHT22;42175;46.930;9.532;2023-05-23T07:08:33;22.50;52.00
56268;DHT22;42175;46.930;9.532;2023-05-23T07:11:00;22.50;52.10
56268;DHT22;42175;46.930;9.532;2023-05-23T07:13:26;22.50;52.00
56268;DHT22;42175;46.930;9.532;2023-05-23T07:15:51;22.50;52.10
56268;DHT22;42175;46.930;9.532;2023-05-23T07:18:17;22.50;52.20
56268;DHT22;42175;46.930;9.532;2023-05-23T07:20:42;22.60;52.20
56268;DHT22;42175;46.930;9.532;2023-05-23T07:23:08;22.60;52.10
56268;DHT22;42175;46.930;9.532;2023-05-23T07:25:34;22.60;52.20
56268;DHT22;42175;46.930;9.532;2023-05-23T07:28:00;22.60;52.20
56268;DHT22;42175;46.930;9.532;2023-05-23T07:30:26;22.60;52.20
56268;DHT22;42175;46.930;9.532;2023-05-23T07:32:51;22.60;52.20
56268;DHT22;42175;46.930;9.532;2023-05-23T07:35:18;22.60;52.20
56268;DHT22;42175;46.930;9.532;2023-05-23T07:37:48;22.70;52.30
56268;DHT22;42175;46.930;9.532;2023-05-23T07:40:14;22.70;52.20
56268;DHT22;42175;46.930;9.532;2023-05-23T07:42:39;22.70;52.20
56268;DHT22;42175;46.930;9.532;2023-05-23T07:45:05;22.70;52.10
56268;DHT22;42175;46.930;9.532;2023-05-23T07:47:31;22.70;52.10
56268;DHT22;42175;46.930;9.532;2023-05-23T07:49:57;22.70;52.20
56268;DHT22;42175;46.930;9.532;2023-05-23T07:52:23;22.70;52.20
56268;DHT22;42175;46.930;9.532;2023-05-23T07:54:49;22.70;52.00
56268;DHT22;42175;46.930;9.532;2023-05-23T07:57:14;22.70;52.10
56268;DHT22;42175;46.930;9.532;2023-05-23T07:59:41;22.70;52.10
56268;DHT22;42175;46.930;9.532;2023-05-23T08:02:06;22.80;52.10
56268;DHT22;42175;46.930;9.532;2023-05-23T08:04:32;22.70;52.10
56268;DHT22;42175;46.930;9.532;2023-05-23T08:06:58;22.80;52.00
56268;DHT22;42175;46.930;9.532;2023-05-23T08:09:25;22.80;52.10
56268;DHT22;42175;46.930;9.532;2023-05-23T08:11:51;22.80;52.10
56268;DHT22;42175;46.930;9.532;2023-05-23T08:14:17;22.90;52.60
56268;DHT22;42175;46.930;9.532;2023-05-23T08:16:42;22.80;52.10
56268;DHT22;42175;46.930;9.532;2023-05-23T08:19:08;22.90;52.00
56268;DHT22;42175;46.930;9.532;2023-05-23T08:21:35;22.90;51.90
56268;DHT22;42175;46.930;9.532;2023-05-23T08:24:00;22.90;52.00
56268;DHT22;42175;46.930;9.532;2023-05-23T08:26:26;22.90;52.00
56268;DHT22;42175;46.930;9.532;2023-05-23T08:29:00;22.90;51.80
56268;DHT22;42175;46.930;9.532;2023-05-23T08:31:28;22.90;52.10
56268;DHT22;42175;46.930;9.532;2023-05-23T08:33:54;22.90;52.10
56268;DHT22;42175;46.930;9.532;2023-05-23T08:36:20;23.00;52.30
56268;DHT22;42175;46.930;9.532;2023-05-23T08:38:46;22.90;52.60
56268;DHT22;42175;46.930;9.532;2023-05-23T08:41:21;23.00;52.60
56268;DHT22;42175;46.930;9.532;2023-05-23T08:43:48;22.90;52.60
56268;DHT22;42175;46.930;9.532;2023-05-23T08:46:14;23.00;52.70
56268;DHT22;42175;46.930;9.532;2023-05-23T08:48:42;23.00;52.70
56268;DHT22;42175;46.930;9.532;2023-05-23T08:51:09;23.00;52.40
56268;DHT22;42175;46.930;9.532;2023-05-23T08:53:40;23.00;53.00
56268;DHT22;42175;46.930;9.532;2023-05-23T08:56:08;23.00;52.90
56268;DHT22;42175;46.930;9.532;2023-05-23T08:58:35;23.00;53.00
56268;DHT22;42175;46.930;9.532;2023-05-23T09:01:03;23.00;52.70
56268;DHT22;42175;46.930;9.532;2023-05-23T09:03:29;23.00;53.60
56268;DHT22;42175;46.930;9.532;2023-05-23T09:05:55;23.00;53.50
56268;DHT22;42175;46.930;9.532;2023-05-23T09:08:21;23.00;53.30
56268;DHT22;42175;46.930;9.532;2023-05-23T09:10:48;23.00;53.20
56268;DHT22;42175;46.930;9.532;2023-05-23T09:13:15;23.00;52.90
56268;DHT22;42175;46.930;9.532;2023-05-23T09:18:26;23.00;53.30
56268;DHT22;42175;46.930;9.532;2023-05-23T09:20:52;23.00;53.10
56268;DHT22;42175;46.930;9.532;2023-05-23T09:23:18;23.00;53.20
56268;DHT22;42175;46.930;9.532;2023-05-23T09:25:47;23.00;53.40
56268;DHT22;42175;46.930;9.532;2023-05-23T09:28:13;23.00;53.50
56268;DHT22;42175;46.930;9.532;2023-05-23T09:30:39;23.10;53.50
56268;DHT22;42175;46.930;9.532;2023-05-23T09:33:05;23.20;53.40
56268;DHT22;42175;46.930;9.532;2023-05-23T09:35:31;23.20;53.60
56268;DHT22;42175;46.930;9.532;2023-05-23T09:37:57;23.10;53.40
56268;DHT22;42175;46.930;9.532;2023-05-23T09:40:29;23.10;53.60
56268;DHT22;42175;46.930;9.532;2023-05-23T09:43:03;23.10;53.40
56268;DHT22;42175;46.930;9.532;2023-05-23T09:45:30;23.10;53.50
56268;DHT22;42175;46.930;9.532;2023-05-23T09:47:57;23.10;53.50
56268;DHT22;42175;46.930;9.532;2023-05-23T09:50:24;23.10;54.00
56268;DHT22;42175;46.930;9.532;2023-05-23T09:52:50;23.20;53.50
56268;DHT22;42175;46.930;9.532;2023-05-23T09:55:18;23.20;53.40
56268;DHT22;42175;46.930;9.532;2023-05-23T09:57:45;23.10;53.40
56268;DHT22;42175;46.930;9.532;2023-05-23T10:00:14;23.10;53.40
56268;DHT22;42175;46.930;9.532;2023-05-23T10:08:07;23.10;53.40
56268;DHT22;42175;46.930;9.532;2023-05-23T10:13:24;23.10;54.10
56268;DHT22;42175;46.930;9.532;2023-05-23T10:15:56;23.10;54.40
56268;DHT22;42175;46.930;9.532;2023-05-23T10:18:27;23.10;54.90
56268;DHT22;42175;46.930;9.532;2023-05-23T10:20:59;23.00;55.10
56268;DHT22;42175;46.930;9.532;2023-05-23T10:23:30;23.00;55.30
56268;DHT22;42175;46.930;9.532;2023-05-23T10:25:57;22.90;55.50
56268;DHT22;42175;46.930;9.532;2023-05-23T10:28:22;22.70;55.90
56268;DHT22;42175;46.930;9.532;2023-05-23T10:30:50;22.40;56.70
56268;DHT22;42175;46.930;9.532;2023-05-23T10:33:17;22.30;57.70
56268;DHT22;42175;46.930;9.532;2023-05-23T10:35:52;22.40;57.00
56268;DHT22;42175;46.930;9.532;2023-05-23T10:38:30;22.50;57.30
56268;DHT22;42175;46.930;9.532;2023-05-23T10:41:22;22.60;56.00
56268;DHT22;42175;46.930;9.532;2023-05-23T10:49:14;22.70;56.20
56268;DHT22;42175;46.930;9.532;2023-05-23T10:51:40;22.70;55.20
56268;DHT22;42175;46.930;9.532;2023-05-23T10:54:10;22.80;55.50
56268;DHT22;42175;46.930;9.532;2023-05-23T10:56:37;22.80;55.10
56268;DHT22;42175;46.930;9.532;2023-05-23T10:59:04;22.70;55.20
56268;DHT22;42175;46.930;9.532;2023-05-23T11:01:31;22.80;55.00
56268;DHT22;42175;46.930;9.532;2023-05-23T11:03:57;22.90;54.90
56268;DHT22;42175;46.930;9.532;2023-05-23T11:06:38;22.80;55.20
56268;DHT22;42175;46.930;9.532;2023-05-23T11:09:17;22.80;54.90
56268;DHT22;42175;46.930;9.532;2023-05-23T11:12:03;22.90;54.60
56268;DHT22;42175;46.930;9.532;2023-05-23T11:19:39;22.90;54.80
56268;DHT22;42175;46.930;9.532;2023-05-23T11:22:20;22.90;54.70
56268;DHT22;42175;46.930;9.532;2023-05-23T11:24:51;22.90;54.60
56268;DHT22;42175;46.930;9.532;2023-05-23T11:27:26;22.90;54.50
56268;DHT22;42175;46.930;9.532;2023-05-23T11:32:34;22.90;54.30
56268;DHT22;42175;46.930;9.532;2023-05-23T11:35:03;22.90;54.20
56268;DHT22;42175;46.930;9.532;2023-05-23T11:37:30;23.00;53.80
56268;DHT22;42175;46.930;9.532;2023-05-23T11:39:56;23.00;53.80
56268;DHT22;42175;46.930;9.532;2023-05-23T11:42:23;23.00;53.60
56268;DHT22;42175;46.930;9.532;2023-05-23T11:44:50;23.00;53.80
56268;DHT22;42175;46.930;9.532;2023-05-23T11:47:16;23.00;53.70
56268;DHT22;42175;46.930;9.532;2023-05-23T11:49:44;23.00;53.60
56268;DHT22;42175;46.930;9.532;2023-05-23T11:52:11;22.90;53.90
56268;DHT22;42175;46.930;9.532;2023-05-23T11:54:42;22.90;53.40
56268;DHT22;42175;46.930;9.532;2023-05-23T11:57:09;22.90;53.40
56268;DHT22;42175;46.930;9.532;2023-05-23T11:59:36;22.90;53.60
56268;DHT22;42175;46.930;9.532;2023-05-23T12:02:04;23.00;53.20
56268;DHT22;42175;46.930;9.532;2023-05-23T12:04:30;22.90;53.00
56268;DHT22;42175;46.930;9.532;2023-05-23T12:06:56;22.90;52.60
56268;DHT22;42175;46.930;9.532;2023-05-23T12:09:22;22.90;53.00
56268;DHT22;42175;46.930;9.532;2023-05-23T12:11:48;22.90;52.90
56268;DHT22;42175;46.930;9.532;2023-05-23T12:14:16;22.90;53.40
56268;DHT22;42175;46.930;9.532;2023-05-23T12:16:43;22.90;53.50
56268;DHT22;42175;46.930;9.532;2023-05-23T12:19:13;22.90;52.90
56268;DHT22;42175;46.930;9.532;2023-05-23T12:21:42;22.90;52.60
56268;DHT22;42175;46.930;9.532;2023-05-23T12:26:52;22.90;53.40
56268;DHT22;42175;46.930;9.532;2023-05-23T12:29:21;23.00;53.60
56268;DHT22;42175;46.930;9.532;2023-05-23T12:31:48;23.10;53.60
56268;DHT22;42175;46.930;9.532;2023-05-23T12:34:14;23.10;53.50
56268;DHT22;42175;46.930;9.532;2023-05-23T12:36:40;23.10;53.90
56268;DHT22;42175;46.930;9.532;2023-05-23T12:39:07;23.10;54.60
56268;DHT22;42175;46.930;9.532;2023-05-23T12:41:33;23.00;54.80
56268;DHT22;42175;46.930;9.532;2023-05-23T12:44:00;23.10;54.70
56268;DHT22;42175;46.930;9.532;2023-05-23T12:46:27;23.10;54.90
56268;DHT22;42175;46.930;9.532;2023-05-23T12:48:53;23.00;55.10
56268;DHT22;42175;46.930;9.532;2023-05-23T12:51:19;23.00;55.70
56268;DHT22;42175;46.930;9.532;2023-05-23T12:53:45;23.00;55.60
56268;DHT22;42175;46.930;9.532;2023-05-23T12:56:11;23.10;56.10
56268;DHT22;42175;46.930;9.532;2023-05-23T12:58:37;23.10;55.70
56268;DHT22;42175;46.930;9.532;2023-05-23T13:01:03;23.20;54.60
56268;DHT22;42175;46.930;9.532;2023-05-23T13:03:29;23.20;54.90
56268;DHT22;42175;46.930;9.532;2023-05-23T13:05:56;23.10;54.70
56268;DHT22;42175;46.930;9.532;2023-05-23T13:08:23;23.10;54.20
56268;DHT22;42175;46.930;9.532;2023-05-23T13:10:48;23.10;53.90
56268;DHT22;42175;46.930;9.532;2023-05-23T13:13:14;23.10;54.00
56268;DHT22;42175;46.930;9.532;2023-05-23T13:15:40;23.20;54.00
56268;DHT22;42175;46.930;9.532;2023-05-23T13:18:06;23.10;53.80
56268;DHT22;42175;46.930;9.532;2023-05-23T13:20:32;23.10;53.50
56268;DHT22;42175;46.930;9.532;2023-05-23T13:22:59;23.10;54.00
56268;DHT22;42175;46.930;9.532;2023-05-23T13:25:29;23.10;54.10
56268;DHT22;42175;46.930;9.532;2023-05-23T13:27:55;23.10;53.60
56268;DHT22;42175;46.930;9.532;2023-05-23T13:30:22;23.10;52.90
56268;DHT22;42175;46.930;9.532;2023-05-23T13:32:48;23.20;52.70
56268;DHT22;42175;46.930;9.532;2023-05-23T13:35:14;23.20;53.00
56268;DHT22;42175;46.930;9.532;2023-05-23T13:37:40;23.20;52.10
56268;DHT22;42175;46.930;9.532;2023-05-23T13:40:06;23.20;52.50
56268;DHT22;42175;46.930;9.532;2023-05-23T13:42:33;23.20;52.30
56268;DHT22;42175;46.930;9.532;2023-05-23T13:44:59;23.30;51.60
56268;DHT22;42175;46.930;9.532;2023-05-23T13:47:24;23.20;51.80
56268;DHT22;42175;46.930;9.532;2023-05-23T13:49:50;23.20;51.70
56268;DHT22;42175;46.930;9.532;2023-05-23T13:52:16;23.20;51.00
56268;DHT22;42175;46.930;9.532;2023-05-23T13:54:42;23.20;50.90
56268;DHT22;42175;46.930;9.532;2023-05-23T13:57:07;23.20;51.40
56268;DHT22;42175;46.930;9.532;2023-05-23T13:59:33;23.20;51.80
56268;DHT22;42175;46.930;9.532;2023-05-23T14:01:59;23.20;51.70
56268;DHT22;42175;46.930;9.532;2023-05-23T14:04:25;23.20;51.90
56268;DHT22;42175;46.930;9.532;2023-05-23T14:06:51;23.20;52.30
56268;DHT22;42175;46.930;9.532;2023-05-23T14:09:17;23.20;52.40
56268;DHT22;42175;46.930;9.532;2023-05-23T14:11:43;23.30;52.30
56268;DHT22;42175;46.930;9.532;2023-05-23T14:14:09;23.40;52.20
56268;DHT22;42175;46.930;9.532;2023-05-23T14:16:35;23.30;52.40
56268;DHT22;42175;46.930;9.532;2023-05-23T14:19:01;23.20;53.10
56268;DHT22;42175;46.930;9.532;2023-05-23T14:21:26;23.20;53.80
56268;DHT22;42175;46.930;9.532;2023-05-23T14:23:55;23.20;52.70
56268;DHT22;42175;46.930;9.532;2023-05-23T14:26:21;23.30;51.40
56268;DHT22;42175;46.930;9.532;2023-05-23T14:28:47;23.20;51.90
56268;DHT22;42175;46.930;9.532;2023-05-23T14:31:13;23.20;53.40
56268;DHT22;42175;46.930;9.532;2023-05-23T14:33:39;23.20;53.90
56268;DHT22;42175;46.930;9.532;2023-05-23T14:36:05;23.20;51.80
56268;DHT22;42175;46.930;9.532;2023-05-23T14:38:30;23.30;52.10
56268;DHT22;42175;46.930;9.532;2023-05-23T14:40:56;23.20;52.40
56268;DHT22;42175;46.930;9.532;2023-05-23T14:43:23;23.20;52.30
56268;DHT22;42175;46.930;9.532;2023-05-23T14:45:49;23.20;53.40
56268;DHT22;42175;46.930;9.532;2023-05-23T14:48:14;23.20;53.90
56268;DHT22;42175;46.930;9.532;2023-05-23T14:50:40;23.20;51.70
56268;DHT22;42175;46.930;9.532;2023-05-23T14:53:07;23.20;52.40
56268;DHT22;42175;46.930;9.532;2023-05-23T14:55:32;23.30;54.10
56268;DHT22;42175;46.930;9.532;2023-05-23T14:57:58;23.30;57.50
56268;DHT22;42175;46.930;9.532;2023-05-23T15:00:24;23.20;56.60
56268;DHT22;42175;46.930;9.532;2023-05-23T15:02:50;23.20;56.10
56268;DHT22;42175;46.930;9.532;2023-05-23T15:05:16;23.20;56.70
56268;DHT22;42175;46.930;9.532;2023-05-23T15:07:42;23.20;56.90
56268;DHT22;42175;46.930;9.532;2023-05-23T15:10:11;23.30;55.40
56268;DHT22;42175;46.930;9.532;2023-05-23T15:12:37;23.20;55.40
56268;DHT22;42175;46.930;9.532;2023-05-23T15:15:03;23.30;55.00
56268;DHT22;42175;46.930;9.532;2023-05-23T15:17:30;23.30;55.30
56268;DHT22;42175;46.930;9.532;2023-05-23T15:19:56;23.30;55.00
56268;DHT22;42175;46.930;9.532;2023-05-23T15:22:22;23.30;54.30
56268;DHT22;42175;46.930;9.532;2023-05-23T15:24:48;23.20;54.90
56268;DHT22;42175;46.930;9.532;2023-05-23T15:27:14;23.20;53.70
56268;DHT22;42175;46.930;9.532;2023-05-23T15:29:40;23.20;54.10
56268;DHT22;42175;46.930;9.532;2023-05-23T15:32:06;23.20;54.30
56268;DHT22;42175;46.930;9.532;2023-05-23T15:34:32;23.20;55.00
56268;DHT22;42175;46.930;9.532;2023-05-23T15:36:58;23.10;54.90
56268;DHT22;42175;46.930;9.532;2023-05-23T15:39:27;23.10;55.20
56268;DHT22;42175;46.930;9.532;2023-05-23T15:41:53;23.20;52.20
56268;DHT22;42175;46.930;9.532;2023-05-23T15:44:19;23.10;52.90
56268;DHT22;42175;46.930;9.532;2023-05-23T15:46:49;23.10;53.30
56268;DHT22;42175;46.930;9.532;2023-05-23T15:49:16;23.10;52.90
56268;DHT22;42175;46.930;9.532;2023-05-23T15:51:41;23.10;51.90
56268;DHT22;42175;46.930;9.532;2023-05-23T15:54:07;23.10;55.00
56268;DHT22;42175;46.930;9.532;2023-05-23T15:56:33;23.10;53.10
56268;DHT22;42175;46.930;9.532;2023-05-23T15:58:58;23.10;53.60
56268;DHT22;42175;46.930;9.532;2023-05-23T16:01:24;23.00;52.20